CEM4 weather

Innisfail Airport
Innisfail, Alberta, Canada

Public forecast

Using degrees Celsius for public forecast. Weather courtesy of forecast.io.

Closest aviation weather report (METAR) to Innisfail Airport

Closest report is Red Deer Regional Airport, 7.9 nm (14.7 km) NE. Retrieved 2020/08/08 12:00 UTC (2 minutes ago):

CYQF 081200Z 00000KT 15SM BKN110 BKN230 06/05 A2991 RMK AC5CI2 SLP142

Closest aviation forecast (TAF) to Innisfail Airport

Closest forecast is Red Deer Regional Airport, 7.9 nm (14.7 km) NE. Retrieved 2020/08/08 12:42 UTC (0 seconds ago):

TAF CYQF 081140Z 0812/0824 22006KT P6SM SCT120 BKN200 FM081500 22006KT P6SM BKN080 OVC200 BECMG 0818/0820 30008KT FM082000 30010KT P6SM -SHRA OVC060 PROB30 0820/0824 VRB20G30KT 2SM TSRA OVC020CB RMK FCST BASED ON AUTO OBS NXT FCST BY 081800Z